Time;durP1;ratioP1;P1;durP2;ratioP2;P2;SDS_P1;SDS_P2;PMS_P1;PMS_P2;Temp;Humidity;BMP_temperature;BMP_pressure;BME280_temperature;BME280_humidity;BME280_pressure;Samples;Min_cycle;Max_cycle;Signal;HPM_P1;HPM_P2
2023/08/13 00:02:26;;;;;;;4.95;2.80;;;24.70;67.20;;;;;;5016339;28;20765;-66
2023/08/13 00:04:53;;;;;;;2.53;2.33;;;24.70;67.20;;;;;;4998573;28;20196;-66
2023/08/13 00:07:20;;;;;;;3.03;2.80;;;24.70;67.20;;;;;;4998413;28;20201;-66
2023/08/13 00:09:47;;;;;;;4.00;2.60;;;24.60;67.00;;;;;;4998542;28;20206;-65
2023/08/13 00:12:14;;;;;;;2.97;2.38;;;24.70;67.10;;;;;;4998334;28;20199;-65
2023/08/13 00:14:41;;;;;;;3.58;2.50;;;24.60;66.90;;;;;;5015922;28;20298;-65
2023/08/13 00:17:08;;;;;;;2.92;2.60;;;24.60;67.00;;;;;;5016248;28;20197;-65
2023/08/13 00:19:36;;;;;;;2.72;2.53;;;24.60;67.00;;;;;;4998429;28;20251;-65
2023/08/13 00:22:04;;;;;;;2.70;2.50;;;24.60;67.00;;;;;;4998029;28;20263;-65
2023/08/13 00:24:31;;;;;;;2.85;2.63;;;24.50;66.80;;;;;;4998070;28;20637;-65
2023/08/13 00:26:58;;;;;;;3.08;2.78;;;24.50;66.70;;;;;;5086734;22;20228;-83
2023/08/13 00:29:25;;;;;;;2.95;2.70;;;24.50;66.80;;;;;;5000576;28;20212;-82
2023/08/13 00:31:54;;;;;;;3.45;2.67;;;24.50;66.70;;;;;;5007249;28;20643;-82
2023/08/13 00:34:22;;;;;;;3.10;2.80;;;24.50;66.80;;;;;;5014755;28;20243;-82
2023/08/13 00:36:50;;;;;;;2.90;2.70;;;24.50;66.70;;;;;;5010036;28;20200;-82
2023/08/13 00:39:18;;;;;;;4.43;2.80;;;24.50;66.70;;;;;;4992105;28;20260;-82
2023/08/13 00:41:45;;;;;;;5.20;3.05;;;24.50;66.70;;;;;;5008018;28;20231;-82
2023/08/13 00:44:11;;;;;;;2.92;2.63;;;24.50;66.70;;;;;;5007950;28;20205;-83
2023/08/13 00:46:39;;;;;;;3.40;2.80;;;24.40;66.50;;;;;;5005817;28;20259;-83
2023/08/13 00:49:06;;;;;;;2.78;2.58;;;24.50;66.60;;;;;;5005892;28;20259;-83
2023/08/13 00:51:33;;;;;;;4.45;2.83;;;24.40;66.40;;;;;;5005045;28;20398;-82
2023/08/13 00:54:02;;;;;;;3.25;2.75;;;24.40;66.50;;;;;;5004956;28;20200;-82
2023/08/13 00:56:29;;;;;;;3.65;2.58;;;24.40;66.50;;;;;;5005123;28;20262;-82
2023/08/13 00:58:57;;;;;;;3.25;2.95;;;24.40;66.40;;;;;;5005453;28;20279;-83
2023/08/13 01:01:24;;;;;;;3.03;2.75;;;24.40;66.40;;;;;;5004537;28;20217;-83
2023/08/13 01:03:51;;;;;;;3.60;2.78;;;24.40;66.30;;;;;;5005366;28;20228;-83
2023/08/13 01:06:21;;;;;;;3.40;3.10;;;24.30;66.20;;;;;;5006040;28;20201;-81
2023/08/13 01:08:54;;;;;;;4.22;2.95;;;24.30;66.20;;;;;;5005772;28;20213;-83
2023/08/13 01:11:28;;;;;;;3.38;2.70;;;24.30;66.20;;;;;;5005174;28;20221;-83
2023/08/13 01:14:01;;;;;;;2.90;2.70;;;24.30;66.30;;;;;;5006279;28;20200;-83
2023/08/13 01:16:29;;;;;;;3.40;3.00;;;24.30;66.20;;;;;;5005641;28;20197;-83
2023/08/13 01:18:56;;;;;;;3.17;2.88;;;24.30;66.20;;;;;;5005147;28;20197;-83
2023/08/13 01:21:23;;;;;;;4.45;3.25;;;24.30;66.20;;;;;;5004766;28;20307;-82
2023/08/13 01:23:53;;;;;;;3.20;2.90;;;24.30;66.20;;;;;;5014025;28;20181;-83
2023/08/13 01:26:20;;;;;;;3.13;2.83;;;24.30;66.20;;;;;;5019930;28;20208;-83
2023/08/13 01:28:50;;;;;;;5.13;2.90;;;24.30;66.20;;;;;;5004478;28;20201;-83
2023/08/13 01:31:19;;;;;;;3.00;2.80;;;24.30;66.20;;;;;;4998296;28;20728;-83
2023/08/13 01:33:47;;;;;;;4.40;3.00;;;24.20;66.10;;;;;;4998838;28;20204;-81
2023/08/13 01:36:16;;;;;;;4.60;3.28;;;24.30;66.20;;;;;;4998437;28;20211;-83
2023/08/13 01:38:43;;;;;;;3.95;2.75;;;24.20;66.20;;;;;;4998275;28;20228;-83
2023/08/13 01:41:12;;;;;;;3.42;3.05;;;24.20;66.10;;;;;;4998692;28;20228;-83
2023/08/13 01:43:39;;;;;;;3.20;2.58;;;24.20;66.20;;;;;;4999958;28;20531;-83
2023/08/13 01:46:06;;;;;;;3.83;3.20;;;24.20;66.10;;;;;;5002202;28;20204;-83
2023/08/13 01:48:33;;;;;;;3.33;3.03;;;24.20;66.20;;;;;;5001596;28;20221;-83
2023/08/13 01:51:00;;;;;;;4.20;2.80;;;24.20;66.20;;;;;;5001092;28;20220;-83
2023/08/13 01:53:27;;;;;;;4.80;2.80;;;24.20;66.20;;;;;;5001567;28;20204;-83
2023/08/13 01:55:54;;;;;;;3.33;3.00;;;24.20;66.20;;;;;;5000650;28;20648;-83
2023/08/13 01:58:23;;;;;;;4.65;2.83;;;24.20;66.20;;;;;;4999516;28;20223;-82
2023/08/13 02:00:51;;;;;;;3.40;3.10;;;24.10;66.00;;;;;;4998112;28;20220;-82
2023/08/13 02:03:18;;;;;;;4.30;2.88;;;24.10;66.00;;;;;;4998111;28;20200;-82
2023/08/13 02:05:45;;;;;;;3.05;2.72;;;24.10;66.10;;;;;;4998182;28;20205;-82
2023/08/13 02:08:12;;;;;;;3.42;2.80;;;24.10;66.10;;;;;;4998187;28;20224;-82
2023/08/13 02:10:39;;;;;;;5.15;3.15;;;24.10;66.10;;;;;;4998162;28;20216;-82
2023/08/13 02:13:07;;;;;;;2.92;2.72;;;24.10;66.00;;;;;;5015255;28;20203;-82
2023/08/13 02:15:35;;;;;;;3.50;2.75;;;24.10;66.10;;;;;;4998025;28;20197;-82
2023/08/13 02:18:04;;;;;;;3.05;2.75;;;24.10;66.10;;;;;;4997735;28;20227;-82
2023/08/13 02:20:31;;;;;;;3.10;2.80;;;24.10;66.10;;;;;;4997440;28;20243;-82
2023/08/13 02:22:59;;;;;;;3.15;2.40;;;24.10;66.10;;;;;;4981962;28;20223;-82
2023/08/13 02:25:26;;;;;;;3.30;3.00;;;24.00;65.90;;;;;;4998359;28;20239;-82
2023/08/13 02:27:53;;;;;;;2.70;2.50;;;24.00;65.90;;;;;;4997815;28;20235;-82
2023/08/13 02:30:20;;;;;;;2.95;2.75;;;24.00;65.90;;;;;;4997486;28;20217;-82
2023/08/13 02:32:49;;;;;;;2.85;2.65;;;24.00;66.00;;;;;;4997468;28;20197;-82
2023/08/13 02:35:17;;;;;;;2.70;2.50;;;24.00;65.90;;;;;;4981378;28;20287;-82
2023/08/13 02:37:44;;;;;;;3.55;2.63;;;24.00;66.00;;;;;;4997679;28;20207;-82
2023/08/13 02:40:11;;;;;;;3.78;2.50;;;24.00;66.10;;;;;;4997407;28;20196;-82
2023/08/13 02:42:39;;;;;;;3.60;2.72;;;24.00;66.10;;;;;;4998289;28;20555;-82
2023/08/13 02:45:06;;;;;;;2.65;2.45;;;24.00;66.10;;;;;;4997891;28;20562;-83
2023/08/13 02:47:34;;;;;;;2.92;2.35;;;24.00;66.20;;;;;;4997394;28;20274;-83
2023/08/13 02:50:02;;;;;;;2.70;2.45;;;24.00;66.30;;;;;;4997301;28;20212;-83
2023/08/13 02:52:31;;;;;;;2.75;2.50;;;24.00;66.30;;;;;;4997281;28;20203;-83
2023/08/13 02:54:58;;;;;;;2.67;2.47;;;24.00;66.30;;;;;;4997349;28;20197;-83
2023/08/13 02:57:25;;;;;;;2.42;2.22;;;23.90;66.20;;;;;;4998152;28;20197;-83
2023/08/13 02:59:54;;;;;;;2.92;2.72;;;23.90;66.20;;;;;;4997591;28;20197;-83
2023/08/13 03:02:21;;;;;;;2.45;2.25;;;23.90;66.30;;;;;;4997346;28;20197;-83
2023/08/13 03:04:48;;;;;;;2.35;2.20;;;23.90;66.30;;;;;;4981126;28;20549;-82
2023/08/13 03:07:17;;;;;;;3.28;2.40;;;24.00;66.20;;;;;;4997703;28;20197;-82
2023/08/13 03:09:44;;;;;;;2.97;2.33;;;24.00;66.20;;;;;;4997922;28;20643;-83
2023/08/13 03:12:11;;;;;;;2.58;2.38;;;24.00;66.20;;;;;;5003465;28;20212;-83
2023/08/13 03:14:41;;;;;;;3.20;2.40;;;24.00;66.50;;;;;;5003869;28;20200;-82
2023/08/13 03:17:08;;;;;;;2.65;2.35;;;24.00;66.10;;;;;;5003286;28;20598;-83
2023/08/13 03:19:36;;;;;;;2.70;2.30;;;24.00;65.80;;;;;;5003670;28;20534;-83
2023/08/13 03:22:03;;;;;;;2.47;2.28;;;24.10;65.80;;;;;;5003926;28;20659;-83
2023/08/13 03:24:31;;;;;;;2.60;2.40;;;24.20;65.60;;;;;;5003630;28;20200;-83
2023/08/13 03:26:58;;;;;;;2.75;2.10;;;24.20;65.50;;;;;;5003449;28;20211;-83
2023/08/13 03:29:26;;;;;;;3.88;2.30;;;24.20;65.40;;;;;;5003857;28;20220;-83
2023/08/13 03:31:55;;;;;;;3.70;2.60;;;24.30;65.20;;;;;;5003970;28;20315;-83
2023/08/13 03:34:25;;;;;;;2.83;2.40;;;24.40;65.10;;;;;;5004181;28;20192;-83
2023/08/13 03:36:53;;;;;;;3.88;2.22;;;24.40;64.80;;;;;;5003707;28;20192;-83
2023/08/13 03:39:20;;;;;;;2.30;2.10;;;24.50;64.70;;;;;;5003637;28;20654;-83
2023/08/13 03:41:52;;;;;;;2.72;2.10;;;24.50;64.60;;;;;;5003520;28;20239;-83
2023/08/13 03:44:19;;;;;;;2.30;2.10;;;24.50;64.40;;;;;;5003366;28;20287;-83
2023/08/13 03:46:46;;;;;;;3.63;2.40;;;24.60;64.50;;;;;;5003474;28;20197;-83
2023/08/13 03:49:13;;;;;;;2.72;2.28;;;24.60;64.40;;;;;;5003398;28;20220;-83
2023/08/13 03:51:41;;;;;;;2.00;1.90;;;24.60;64.10;;;;;;5003131;28;20311;-83
2023/08/13 03:54:08;;;;;;;1.88;1.77;;;24.60;64.00;;;;;;5003245;28;20196;-82
2023/08/13 03:56:35;;;;;;;2.22;1.90;;;24.70;63.80;;;;;;5003772;28;20557;-83
2023/08/13 03:59:04;;;;;;;2.10;1.90;;;24.70;64.00;;;;;;5003031;28;20189;-83
2023/08/13 04:01:32;;;;;;;2.35;2.03;;;24.70;63.80;;;;;;5004277;28;20224;-83
2023/08/13 04:03:59;;;;;;;1.88;1.73;;;24.70;63.60;;;;;;5002961;28;20283;-83
2023/08/13 04:06:27;;;;;;;2.38;2.00;;;24.70;63.50;;;;;;5003302;28;20197;-83
2023/08/13 04:08:54;;;;;;;2.50;2.30;;;24.70;63.50;;;;;;5002471;28;20220;-83
2023/08/13 04:11:23;;;;;;;2.22;2.03;;;24.70;63.60;;;;;;4986925;28;20220;-83
2023/08/13 04:13:50;;;;;;;3.40;2.20;;;24.70;63.50;;;;;;5003269;28;20197;-83
2023/08/13 04:16:20;;;;;;;2.03;1.83;;;24.70;63.50;;;;;;4987356;28;20660;-83
2023/08/13 04:18:50;;;;;;;2.05;1.85;;;24.70;63.50;;;;;;5003130;28;20610;-83
2023/08/13 04:21:17;;;;;;;2.15;2.03;;;24.70;63.50;;;;;;5002527;28;20224;-83
2023/08/13 04:23:45;;;;;;;4.18;2.33;;;24.70;63.50;;;;;;4999543;28;20266;-83
2023/08/13 04:26:11;;;;;;;2.00;1.83;;;24.70;63.70;;;;;;5000010;28;20212;-83
2023/08/13 04:28:39;;;;;;;3.45;2.10;;;24.70;63.70;;;;;;5000124;28;20193;-83
2023/08/13 04:31:06;;;;;;;3.47;2.05;;;24.70;63.80;;;;;;5000078;28;20220;-83
2023/08/13 04:33:38;;;;;;;2.13;2.00;;;24.70;63.90;;;;;;5001938;28;20184;-83
2023/08/13 04:36:06;;;;;;;3.75;2.20;;;24.60;64.00;;;;;;5001000;28;20192;-83
2023/08/13 04:38:34;;;;;;;2.83;1.90;;;24.60;64.20;;;;;;4999960;28;20292;-83
2023/08/13 04:41:03;;;;;;;2.05;1.83;;;24.60;64.40;;;;;;5000654;28;20303;-83
2023/08/13 04:43:36;;;;;;;2.30;2.10;;;24.60;64.30;;;;;;5000287;28;20193;-83
2023/08/13 04:46:04;;;;;;;2.42;2.22;;;24.60;64.10;;;;;;4999968;28;20280;-83
2023/08/13 04:48:44;;;;;;;2.75;2.13;;;24.60;64.30;;;;;;4999568;28;20258;-83
2023/08/13 04:51:12;;;;;;;2.30;2.10;;;24.70;64.40;;;;;;4999261;28;20683;-83
2023/08/13 04:53:40;;;;;;;2.13;2.03;;;24.60;64.40;;;;;;4999275;28;20196;-83
2023/08/13 04:56:08;;;;;;;2.20;1.90;;;24.60;64.40;;;;;;4999396;28;20208;-83
2023/08/13 04:58:35;;;;;;;3.03;2.10;;;24.60;64.50;;;;;;4982959;28;20196;-83
2023/08/13 05:01:03;;;;;;;1.90;1.80;;;24.60;64.60;;;;;;4998699;28;20303;-83
2023/08/13 05:03:32;;;;;;;2.95;2.00;;;24.60;64.60;;;;;;4999074;28;20223;-83
2023/08/13 05:06:01;;;;;;;3.33;1.95;;;24.50;64.70;;;;;;4999786;28;20622;-83
2023/08/13 05:08:28;;;;;;;4.82;2.30;;;24.60;64.80;;;;;;4998842;28;20203;-83
2023/08/13 05:10:57;;;;;;;2.38;2.17;;;24.50;64.90;;;;;;5000598;28;20252;-83
2023/08/13 05:13:24;;;;;;;2.53;2.30;;;24.50;65.00;;;;;;5000474;28;20739;-83
2023/08/13 05:15:51;;;;;;;2.85;2.00;;;24.50;65.20;;;;;;5004077;28;20633;-83
2023/08/13 05:18:18;;;;;;;2.10;1.90;;;24.50;65.20;;;;;;5002715;28;20208;-83
2023/08/13 05:20:46;;;;;;;2.03;1.90;;;24.40;65.30;;;;;;5001917;28;20209;-83
2023/08/13 05:23:14;;;;;;;2.75;2.00;;;24.40;65.50;;;;;;4985273;28;20193;-83
2023/08/13 05:25:42;;;;;;;2.63;2.40;;;24.40;65.60;;;;;;5002234;28;20200;-83
2023/08/13 05:28:10;;;;;;;2.08;1.98;;;24.40;65.60;;;;;;5001738;28;20212;-83
2023/08/13 05:30:38;;;;;;;2.25;2.05;;;24.40;65.80;;;;;;5001362;28;20229;-83
2023/08/13 05:33:06;;;;;;;2.78;2.33;;;24.40;65.80;;;;;;5001033;28;20494;-83
2023/08/13 05:35:33;;;;;;;2.30;2.10;;;24.40;65.80;;;;;;5001328;28;20665;-83
2023/08/13 05:38:00;;;;;;;2.30;2.10;;;24.40;65.80;;;;;;5002119;28;20193;-83
2023/08/13 05:40:31;;;;;;;2.80;2.20;;;24.30;65.80;;;;;;5000918;28;20227;-83
2023/08/13 05:42:58;;;;;;;2.28;2.13;;;24.40;65.90;;;;;;5001676;28;20204;-83
2023/08/13 05:45:25;;;;;;;2.40;2.20;;;24.40;65.90;;;;;;5001478;28;20283;-83
2023/08/13 05:47:53;;;;;;;2.10;1.90;;;24.30;65.90;;;;;;5002342;28;20687;-83
2023/08/13 05:50:21;;;;;;;4.43;2.28;;;24.40;66.10;;;;;;5002119;28;20220;-83
2023/08/13 05:52:48;;;;;;;2.42;2.22;;;24.30;66.00;;;;;;5003244;28;20196;-83
2023/08/13 05:55:16;;;;;;;2.47;2.28;;;24.30;66.10;;;;;;5002761;28;20200;-82
2023/08/13 05:57:44;;;;;;;2.85;2.47;;;24.30;66.10;;;;;;5002481;28;20224;-83
2023/08/13 06:00:13;;;;;;;1.80;1.70;;;24.30;66.10;;;;;;5002999;28;20243;-83
2023/08/13 06:02:42;;;;;;;2.10;1.90;;;24.30;66.20;;;;;;5003320;28;20267;-83
2023/08/13 06:05:09;;;;;;;1.90;1.80;;;24.30;66.20;;;;;;5002652;28;20201;-83
2023/08/13 06:07:36;;;;;;;2.15;2.05;;;24.30;66.30;;;;;;5000708;28;20192;-83
2023/08/13 06:10:04;;;;;;;2.85;2.05;;;24.30;66.30;;;;;;5001529;28;20244;-83
2023/08/13 06:12:31;;;;;;;3.75;2.05;;;24.30;66.40;;;;;;5002226;28;20247;-83
2023/08/13 06:15:01;;;;;;;2.28;1.90;;;24.30;66.40;;;;;;5002468;28;20205;-83
2023/08/13 06:17:28;;;;;;;2.65;2.15;;;24.30;66.40;;;;;;5001362;28;20204;-83
2023/08/13 06:19:55;;;;;;;2.35;2.05;;;24.30;66.50;;;;;;4998421;28;20566;-84
2023/08/13 06:22:22;;;;;;;4.07;1.95;;;24.30;66.50;;;;;;4997880;28;20197;-83
2023/08/13 06:24:49;;;;;;;2.42;2.15;;;24.30;66.50;;;;;;4999170;28;20249;-83
2023/08/13 06:27:16;;;;;;;3.15;2.40;;;24.30;66.60;;;;;;5108008;23;20294;-82
2023/08/13 06:29:45;;;;;;;3.05;2.35;;;24.30;66.70;;;;;;4997813;28;20251;-83
2023/08/13 06:32:13;;;;;;;2.40;2.20;;;24.30;66.70;;;;;;4997928;28;20586;-83
2023/08/13 06:34:40;;;;;;;2.30;2.03;;;24.30;66.70;;;;;;4997539;28;20237;-83
2023/08/13 06:37:09;;;;;;;2.30;2.10;;;24.30;66.80;;;;;;4998053;28;20626;-83
2023/08/13 06:39:36;;;;;;;2.28;2.08;;;24.30;67.60;;;;;;4998292;28;20189;-83
2023/08/13 06:42:04;;;;;;;2.50;2.30;;;24.30;66.90;;;;;;4998879;28;20224;-82
2023/08/13 06:44:32;;;;;;;2.13;2.00;;;24.30;66.90;;;;;;4998340;28;20655;-83
2023/08/13 06:47:00;;;;;;;2.53;2.33;;;24.30;66.90;;;;;;5001982;28;20197;-82
2023/08/13 06:49:29;;;;;;;2.28;2.15;;;24.30;66.90;;;;;;5001845;28;20611;-82
2023/08/13 06:51:56;;;;;;;2.67;2.47;;;24.30;66.80;;;;;;5000633;28;20226;-83
2023/08/13 06:54:24;;;;;;;2.80;2.40;;;24.30;66.80;;;;;;4984031;28;20200;-84
2023/08/13 06:56:51;;;;;;;3.05;2.47;;;24.30;66.80;;;;;;4999037;28;20568;-83
2023/08/13 06:59:18;;;;;;;2.38;2.20;;;24.30;66.90;;;;;;4998865;28;20655;-83
2023/08/13 07:01:45;;;;;;;2.20;2.00;;;24.30;67.00;;;;;;4999661;28;20224;-83
2023/08/13 07:04:12;;;;;;;2.35;2.15;;;24.30;67.00;;;;;;4998797;28;20262;-83
2023/08/13 07:06:41;;;;;;;2.88;2.50;;;24.30;67.00;;;;;;4998985;28;20201;-83
2023/08/13 07:09:08;;;;;;;3.00;2.67;;;24.30;66.90;;;;;;4998894;28;20287;-83
2023/08/13 07:11:36;;;;;;;3.00;2.33;;;24.30;66.90;;;;;;4998637;28;20221;-83
2023/08/13 07:14:04;;;;;;;2.90;2.40;;;24.30;66.90;;;;;;4998000;28;20200;-83
2023/08/13 07:16:31;;;;;;;2.60;2.40;;;24.30;66.90;;;;;;4996776;28;20678;-82
2023/08/13 07:18:59;;;;;;;2.70;2.50;;;24.30;66.90;;;;;;4996964;28;20199;-83
2023/08/13 07:21:26;;;;;;;2.63;2.42;;;24.30;67.00;;;;;;4996988;28;20216;-83
2023/08/13 07:23:58;;;;;;;2.70;2.50;;;24.30;66.90;;;;;;4997900;28;20655;-84
2023/08/13 07:26:25;;;;;;;2.42;2.22;;;24.30;67.00;;;;;;4999288;28;20226;-83
2023/08/13 07:28:52;;;;;;;3.20;2.40;;;24.40;67.10;;;;;;4998697;28;20251;-83
2023/08/13 07:31:20;;;;;;;2.72;2.33;;;24.40;67.10;;;;;;4997433;28;20229;-83
2023/08/13 07:33:47;;;;;;;2.50;2.30;;;24.40;67.00;;;;;;4997918;28;20200;-83
2023/08/13 07:36:16;;;;;;;2.45;2.25;;;24.40;67.00;;;;;;4997931;28;20211;-83
2023/08/13 07:38:43;;;;;;;3.55;2.42;;;24.40;66.90;;;;;;4997864;28;20193;-83
2023/08/13 07:41:12;;;;;;;3.67;2.67;;;24.30;66.80;;;;;;4998084;28;20561;-83
2023/08/13 07:43:39;;;;;;;2.95;2.50;;;24.40;66.90;;;;;;4998104;28;20200;-83
2023/08/13 07:46:06;;;;;;;2.65;2.20;;;24.40;66.90;;;;;;4998091;28;20611;-83
2023/08/13 07:48:33;;;;;;;2.63;2.33;;;24.40;67.10;;;;;;4998563;28;20203;-83
2023/08/13 07:51:00;;;;;;;3.20;2.40;;;24.40;67.00;;;;;;4998056;28;20283;-83
2023/08/13 07:53:29;;;;;;;2.80;2.60;;;24.40;67.70;;;;;;4998685;28;20225;-83
2023/08/13 07:55:56;;;;;;;2.58;2.38;;;24.40;66.90;;;;;;4998588;28;20620;-83
2023/08/13 07:58:25;;;;;;;2.70;2.38;;;24.50;67.10;;;;;;5002466;28;20775;-83
2023/08/13 08:00:52;;;;;;;2.65;2.15;;;24.50;67.10;;;;;;5003397;28;20220;-83
2023/08/13 08:03:19;;;;;;;2.47;2.28;;;24.50;67.10;;;;;;5002588;28;20201;-84
2023/08/13 08:05:48;;;;;;;2.80;2.60;;;24.50;67.00;;;;;;5003249;28;20205;-81
2023/08/13 08:08:15;;;;;;;2.45;2.25;;;24.70;66.90;;;;;;4986723;28;20703;-82
2023/08/13 08:10:42;;;;;;;3.03;2.72;;;24.80;66.50;;;;;;5002064;28;20367;-82
2023/08/13 08:13:09;;;;;;;2.92;2.72;;;24.90;66.20;;;;;;5000860;28;20232;-82
2023/08/13 08:15:37;;;;;;;3.92;3.60;;;24.90;66.50;;;;;;5000602;28;20659;-82
2023/08/13 08:18:05;;;;;;;3.85;3.55;;;24.90;69.60;;;;;;5001126;28;20231;-82
2023/08/13 08:20:32;;;;;;;4.78;3.22;;;24.90;71.40;;;;;;5018601;28;20220;-83
2023/08/13 08:23:00;;;;;;;4.13;3.80;;;24.90;72.10;;;;;;5000690;28;20651;-82
2023/08/13 08:25:27;;;;;;;4.10;3.70;;;24.90;72.80;;;;;;5001273;28;20199;-82
2023/08/13 08:27:54;;;;;;;4.25;3.67;;;24.90;72.70;;;;;;5000792;28;20204;-81
2023/08/13 08:30:21;;;;;;;4.13;3.72;;;24.90;72.90;;;;;;5000961;28;20228;-82
2023/08/13 08:32:49;;;;;;;4.90;3.50;;;24.90;73.20;;;;;;5001096;28;20266;-82
2023/08/13 08:35:17;;;;;;;4.00;3.60;;;24.90;73.60;;;;;;5001995;28;20201;-82
2023/08/13 08:37:44;;;;;;;3.78;3.47;;;24.90;73.70;;;;;;4968484;28;20270;-82
2023/08/13 08:40:11;;;;;;;4.30;3.90;;;24.90;74.00;;;;;;5000445;28;20203;-82
2023/08/13 08:42:38;;;;;;;3.83;3.53;;;24.90;74.50;;;;;;4999484;28;20443;-82
2023/08/13 08:45:07;;;;;;;3.55;3.30;;;24.90;73.80;;;;;;5000480;28;20232;-82
2023/08/13 08:47:34;;;;;;;18.75;7.72;;;24.90;73.10;;;;;;5000535;28;20196;-82
2023/08/13 08:50:05;;;;;;;17.65;9.75;;;24.90;73.20;;;;;;5001733;28;20266;-82
2023/08/13 08:52:33;;;;;;;29.67;16.38;;;24.90;73.70;;;;;;5003707;28;20445;-82
2023/08/13 08:55:02;;;;;;;12.93;9.60;;;24.90;74.10;;;;;;5004243;28;20615;-82
2023/08/13 08:57:29;;;;;;;10.43;7.22;;;25.00;74.70;;;;;;5010653;28;20207;-83
2023/08/13 08:59:56;;;;;;;9.98;5.75;;;25.00;74.10;;;;;;5017812;28;20230;-82
2023/08/13 09:02:23;;;;;;;5.07;4.22;;;25.00;74.10;;;;;;5019254;28;20196;-82
2023/08/13 09:04:50;;;;;;;6.45;4.05;;;25.10;74.70;;;;;;5020071;28;20201;-82
2023/08/13 09:07:19;;;;;;;3.85;3.55;;;25.10;74.70;;;;;;5011077;28;20654;-82
2023/08/13 09:09:49;;;;;;;4.15;3.28;;;25.10;74.70;;;;;;5004931;28;20193;-82
2023/08/13 09:12:16;;;;;;;3.92;3.22;;;25.20;73.80;;;;;;5001803;28;20750;-82
2023/08/13 09:14:43;;;;;;;3.33;3.03;;;25.20;73.40;;;;;;4999738;28;20200;-82
2023/08/13 09:17:11;;;;;;;3.30;3.00;;;25.20;74.00;;;;;;5001501;28;20205;-82
2023/08/13 09:19:39;;;;;;;3.60;3.08;;;25.20;73.70;;;;;;5002368;28;20211;-82
2023/08/13 09:22:06;;;;;;;4.22;3.17;;;25.20;72.40;;;;;;5002530;28;20681;-82
2023/08/13 09:24:35;;;;;;;3.42;3.13;;;25.10;73.30;;;;;;5020247;28;20248;-82
2023/08/13 09:27:02;;;;;;;3.65;3.35;;;25.20;73.70;;;;;;5002426;28;20219;-82
2023/08/13 09:29:30;;;;;;;3.75;3.17;;;25.20;74.10;;;;;;5002559;28;20667;-82
2023/08/13 09:31:57;;;;;;;3.90;3.40;;;25.20;73.80;;;;;;5001694;28;20251;-82
2023/08/13 09:34:25;;;;;;;3.72;3.40;;;25.20;74.40;;;;;;5001711;28;20192;-82
2023/08/13 09:36:55;;;;;;;4.63;3.35;;;25.30;74.70;;;;;;5000251;28;20200;-82
2023/08/13 09:39:23;;;;;;;3.70;3.33;;;25.40;72.90;;;;;;4999060;28;20489;-82
2023/08/13 09:41:52;;;;;;;3.38;3.08;;;25.60;72.50;;;;;;4983389;28;20299;-82
2023/08/13 09:44:21;;;;;;;3.63;3.17;;;25.80;72.60;;;;;;5000223;28;20208;-82
2023/08/13 09:46:50;;;;;;;4.40;3.13;;;25.90;71.20;;;;;;5004179;28;20203;-82
2023/08/13 09:49:17;;;;;;;3.85;3.10;;;26.10;70.60;;;;;;5003428;28;20266;-83
2023/08/13 09:51:45;;;;;;;3.30;3.00;;;26.20;70.60;;;;;;5003359;28;20232;-81
2023/08/13 09:54:14;;;;;;;3.22;2.90;;;26.30;70.10;;;;;;5002792;28;20224;-82
2023/08/13 09:56:42;;;;;;;3.42;3.13;;;26.30;70.20;;;;;;5001288;28;20196;-83
2023/08/13 09:59:11;;;;;;;3.40;3.10;;;26.30;70.20;;;;;;5003130;28;20243;-83
2023/08/13 10:01:38;;;;;;;3.45;3.17;;;26.30;70.20;;;;;;5003925;28;20231;-83
2023/08/13 10:04:06;;;;;;;3.70;2.90;;;26.30;70.10;;;;;;5003624;28;20192;-83
2023/08/13 10:06:33;;;;;;;4.60;3.50;;;26.30;69.60;;;;;;5004198;28;20200;-82
2023/08/13 10:09:00;;;;;;;4.13;3.25;;;26.30;69.40;;;;;;5003146;28;20239;-81
2023/08/13 10:11:28;;;;;;;3.30;2.92;;;26.40;68.50;;;;;;5002527;28;20428;-82
2023/08/13 10:13:56;;;;;;;3.45;3.10;;;26.50;67.70;;;;;;5002486;28;20200;-82
2023/08/13 10:16:24;;;;;;;3.25;2.92;;;26.60;68.00;;;;;;5002753;28;20196;-82
2023/08/13 10:18:51;;;;;;;3.42;2.80;;;26.70;67.40;;;;;;5001134;28;20199;-82
2023/08/13 10:21:32;;;;;;;3.15;2.85;;;26.60;67.50;;;;;;5020265;28;20196;-82
2023/08/13 10:24:01;;;;;;;4.40;3.25;;;26.70;66.40;;;;;;5021756;28;20212;-83
2023/08/13 10:26:28;;;;;;;4.38;2.95;;;26.70;66.90;;;;;;5020373;28;20284;-83
2023/08/13 10:28:55;;;;;;;4.20;2.95;;;26.70;66.10;;;;;;5002453;28;20250;-83
2023/08/13 10:31:30;;;;;;;3.40;3.10;;;26.80;66.00;;;;;;4986142;28;20224;-83
2023/08/13 10:34:03;;;;;;;4.22;3.38;;;26.80;65.70;;;;;;5003249;28;20250;-83
2023/08/13 10:36:46;;;;;;;3.45;3.08;;;26.90;65.50;;;;;;5000861;28;20323;-83
2023/08/13 10:39:36;;;;;;;2.83;2.63;;;26.80;65.00;;;;;;4996926;28;20211;-82
2023/08/13 10:42:04;;;;;;;3.08;2.60;;;26.90;64.80;;;;;;4999980;28;20216;-82
2023/08/13 10:44:40;;;;;;;4.15;3.20;;;26.90;64.40;;;;;;5000169;28;20531;-82
2023/08/13 10:47:08;;;;;;;3.00;2.70;;;26.90;64.70;;;;;;4999328;28;20573;-82
2023/08/13 10:49:36;;;;;;;4.00;3.03;;;27.00;64.40;;;;;;4998476;28;20196;-82
2023/08/13 10:52:04;;;;;;;3.78;3.00;;;27.10;64.00;;;;;;4999594;28;20287;-82
2023/08/13 10:54:31;;;;;;;3.20;2.92;;;27.10;63.80;;;;;;4999352;28;20199;-82
2023/08/13 10:56:59;;;;;;;3.28;2.97;;;27.20;63.10;;;;;;4998871;28;20204;-82
2023/08/13 10:59:30;;;;;;;2.83;2.63;;;27.20;62.70;;;;;;4999271;28;20223;-82
2023/08/13 11:02:21;;;;;;;3.25;3.00;;;27.20;62.80;;;;;;4998938;28;20579;-82
2023/08/13 11:04:48;;;;;;;4.68;3.10;;;27.20;62.80;;;;;;4999559;28;20214;-82
2023/08/13 11:07:15;;;;;;;3.25;2.95;;;27.20;63.80;;;;;;4998509;28;20243;-83
2023/08/13 11:09:43;;;;;;;3.72;3.05;;;27.10;63.40;;;;;;4998269;28;20196;-83
2023/08/13 11:12:10;;;;;;;3.47;3.17;;;27.10;63.30;;;;;;4998710;28;20216;-83
2023/08/13 11:14:37;;;;;;;4.38;3.20;;;27.10;62.90;;;;;;4997928;28;20193;-83
2023/08/13 11:17:04;;;;;;;3.47;3.17;;;27.10;62.70;;;;;;4998271;28;20246;-82
2023/08/13 11:19:33;;;;;;;3.03;2.72;;;27.10;62.80;;;;;;5001148;28;20238;-82
2023/08/13 11:22:01;;;;;;;3.97;3.00;;;27.10;62.80;;;;;;4998137;28;20656;-83
2023/08/13 11:24:30;;;;;;;3.53;3.17;;;27.10;62.90;;;;;;4998282;28;20196;-82
2023/08/13 11:26:57;;;;;;;4.63;3.20;;;27.20;62.80;;;;;;4997785;28;20216;-82
2023/08/13 11:29:24;;;;;;;4.45;3.10;;;27.20;62.60;;;;;;4997132;28;20658;-81
2023/08/13 11:31:51;;;;;;;3.25;2.95;;;27.10;62.70;;;;;;4998574;28;20415;-80
2023/08/13 11:34:18;;;;;;;4.00;3.05;;;27.20;62.70;;;;;;5001982;28;20195;-81
2023/08/13 11:36:47;;;;;;;3.58;2.90;;;27.20;62.60;;;;;;5001103;28;20210;-81
2023/08/13 11:39:14;;;;;;;4.00;2.90;;;27.20;62.50;;;;;;5000734;28;20211;-83
2023/08/13 11:41:41;;;;;;;3.55;3.25;;;27.20;62.60;;;;;;5000974;28;20274;-81
2023/08/13 11:44:10;;;;;;;3.30;3.00;;;27.20;62.90;;;;;;5001261;28;20200;-81
2023/08/13 11:46:56;;;;;;;3.40;3.10;;;27.20;63.10;;;;;;5000436;28;20200;-81
2023/08/13 11:49:23;;;;;;;3.83;3.33;;;27.20;63.10;;;;;;5000738;28;20215;-81
2023/08/13 11:51:53;;;;;;;3.25;2.97;;;27.20;62.90;;;;;;5001862;28;20200;-82
2023/08/13 11:54:21;;;;;;;3.75;3.33;;;27.20;62.90;;;;;;5002929;28;20565;-81
2023/08/13 11:56:50;;;;;;;4.40;3.25;;;27.20;62.80;;;;;;5003056;28;20725;-80
2023/08/13 11:59:24;;;;;;;4.47;3.80;;;27.20;63.50;;;;;;5003118;28;20207;-81
2023/08/13 12:01:54;;;;;;;4.03;3.63;;;27.20;63.30;;;;;;5002500;28;20223;-83
2023/08/13 12:04:23;;;;;;;4.45;3.58;;;27.20;64.70;;;;;;4987003;28;20200;-82
2023/08/13 12:06:53;;;;;;;3.80;3.33;;;27.20;63.90;;;;;;4986003;28;20280;-82
2023/08/13 12:09:20;;;;;;;3.90;3.53;;;27.20;64.30;;;;;;5002892;28;20238;-83
2023/08/13 12:11:47;;;;;;;3.55;3.25;;;27.20;64.00;;;;;;4984716;28;20219;-84
2023/08/13 12:14:14;;;;;;;3.65;3.22;;;27.20;65.20;;;;;;5000912;28;20196;-82
2023/08/13 12:16:41;;;;;;;4.13;3.72;;;27.20;64.60;;;;;;5001136;28;20247;-82
2023/08/13 12:19:08;;;;;;;3.63;3.33;;;27.20;64.60;;;;;;5000481;28;20295;-83
2023/08/13 12:21:35;;;;;;;3.75;3.22;;;27.20;64.50;;;;;;5001678;28;20254;-81
2023/08/13 12:24:05;;;;;;;6.07;3.60;;;27.20;64.50;;;;;;5001502;28;20551;-81
2023/08/13 12:26:31;;;;;;;4.05;3.28;;;27.10;64.70;;;;;;5001649;28;20267;-81
2023/08/13 12:28:59;;;;;;;3.90;3.60;;;27.20;64.70;;;;;;5001590;28;20298;-81
2023/08/13 12:31:26;;;;;;;4.30;3.50;;;27.20;64.80;;;;;;5001352;28;20211;-81
2023/08/13 12:33:53;;;;;;;4.78;3.38;;;27.10;64.70;;;;;;4985026;28;20204;-81
2023/08/13 12:36:21;;;;;;;4.47;3.60;;;27.10;65.10;;;;;;5000859;28;20223;-83
2023/08/13 12:38:48;;;;;;;4.20;3.78;;;27.10;65.30;;;;;;5000356;28;20196;-81
2023/08/13 12:41:16;;;;;;;4.20;3.80;;;27.10;65.00;;;;;;5000165;28;20227;-81
2023/08/13 12:43:43;;;;;;;3.92;3.58;;;27.10;65.00;;;;;;4999408;28;20571;-81
2023/08/13 12:46:10;;;;;;;4.00;3.60;;;27.10;65.10;;;;;;5000419;28;20254;-80
2023/08/13 12:48:38;;;;;;;4.03;3.63;;;27.10;65.10;;;;;;4999665;28;20548;-81
2023/08/13 12:51:05;;;;;;;3.92;3.50;;;27.00;64.90;;;;;;4999801;28;20215;-83